createdAt,value
2018-08-30T00:01:33.126Z,3.40
2018-08-30T00:04:01.116Z,3.40
2018-08-30T00:06:29.118Z,3.70
2018-08-30T00:08:57.247Z,3.40
2018-08-30T00:11:25.331Z,4.10
2018-08-30T00:13:53.330Z,4.03
2018-08-30T00:16:21.345Z,3.40
2018-08-30T00:18:49.330Z,4.30
2018-08-30T00:21:17.381Z,3.70
2018-08-30T00:23:45.482Z,3.50
2018-08-30T00:26:13.644Z,4.00
2018-08-30T00:28:41.682Z,3.00
2018-08-30T00:31:09.827Z,3.80
2018-08-30T00:33:37.949Z,3.20
2018-08-30T00:36:06.059Z,4.50
2018-08-30T00:38:34.194Z,3.60
2018-08-30T00:41:02.324Z,4.00
2018-08-30T00:43:30.355Z,3.83
2018-08-30T00:45:58.565Z,3.67
2018-08-30T00:48:26.617Z,3.83
2018-08-30T00:50:54.818Z,3.70
2018-08-30T00:53:22.831Z,3.37
2018-08-30T00:55:50.839Z,3.50
2018-08-30T00:58:18.878Z,3.37
2018-08-30T01:00:46.894Z,3.70
2018-08-30T01:03:15.058Z,3.30
2018-08-30T01:05:43.203Z,3.50
2018-08-30T01:08:11.453Z,3.30
2018-08-30T01:10:39.517Z,3.53
2018-08-30T01:13:07.658Z,3.13
2018-08-30T01:15:35.674Z,3.33
2018-08-30T01:18:03.703Z,3.70
2018-08-30T01:20:31.675Z,3.13
2018-08-30T01:22:59.714Z,3.00
2018-08-30T01:25:27.694Z,3.80
2018-08-30T01:27:55.737Z,2.83
2018-08-30T01:30:23.723Z,2.57
2018-08-30T01:32:51.711Z,3.60
2018-08-30T01:35:19.756Z,2.60
2018-08-30T01:37:47.754Z,2.97
2018-08-30T01:40:15.794Z,2.97
2018-08-30T01:42:43.781Z,3.37
2018-08-30T01:45:11.850Z,3.17
2018-08-30T01:47:39.847Z,2.90
2018-08-30T01:50:07.852Z,3.17
2018-08-30T01:52:35.908Z,2.83
2018-08-30T01:55:03.971Z,2.83
2018-08-30T01:57:32.047Z,3.20
2018-08-30T02:00:01.947Z,3.23
2018-08-30T02:02:29.972Z,3.73
2018-08-30T02:04:57.936Z,3.20
2018-08-30T02:07:26.065Z,2.50
2018-08-30T02:09:54.115Z,2.83
2018-08-30T02:12:22.090Z,2.70
2018-08-30T02:14:50.059Z,2.50
2018-08-30T02:17:18.034Z,2.03
2018-08-30T02:19:46.086Z,2.40
2018-08-30T02:22:14.080Z,2.27
2018-08-30T02:24:42.057Z,2.60
2018-08-30T02:27:10.068Z,2.40
2018-08-30T02:29:38.102Z,2.47
2018-08-30T02:32:06.082Z,2.80
2018-08-30T02:34:34.099Z,2.33
2018-08-30T02:37:02.125Z,2.20
2018-08-30T02:39:30.121Z,2.27
2018-08-30T02:42:00.234Z,2.37
2018-08-30T02:44:28.198Z,2.50
2018-08-30T02:46:56.162Z,2.20
2018-08-30T02:49:24.123Z,2.30
2018-08-30T02:51:52.072Z,2.53
2018-08-30T02:54:22.166Z,2.27
2018-08-30T02:56:50.179Z,2.97
2018-08-30T02:59:18.183Z,2.40
2018-08-30T03:01:48.107Z,2.50
2018-08-30T03:04:16.124Z,2.10
2018-08-30T03:06:44.075Z,2.63
2018-08-30T03:09:12.054Z,2.73
2018-08-30T03:11:40.039Z,2.37
2018-08-30T03:14:07.987Z,2.43
2018-08-30T03:16:35.924Z,2.40
2018-08-30T03:19:03.866Z,2.63
2018-08-30T03:21:31.810Z,1.73
2018-08-30T03:23:59.753Z,2.67
2018-08-30T03:26:29.902Z,2.60
2018-08-30T03:28:57.966Z,2.30
2018-08-30T03:31:25.938Z,2.50
2018-08-30T03:33:53.879Z,2.20
2018-08-30T03:36:23.062Z,3.20
2018-08-30T03:38:51.067Z,2.10
2018-08-30T03:41:19.187Z,2.70
2018-08-30T03:43:47.224Z,2.63
2018-08-30T03:46:15.358Z,2.47
2018-08-30T03:48:43.484Z,2.93
2018-08-30T03:51:11.431Z,2.83
2018-08-30T03:53:39.378Z,2.60
2018-08-30T03:56:09.532Z,2.50
2018-08-30T03:58:37.490Z,2.80
2018-08-30T04:01:05.446Z,2.73
2018-08-30T04:03:33.414Z,2.07
2018-08-30T04:06:01.387Z,2.20
2018-08-30T04:08:29.350Z,3.30
2018-08-30T04:10:57.322Z,2.43
2018-08-30T04:13:27.025Z,2.43
2018-08-30T04:15:54.958Z,2.70
2018-08-30T04:18:22.934Z,3.00
2018-08-30T04:20:50.902Z,3.37
2018-08-30T04:23:18.899Z,3.47
2018-08-30T04:25:46.879Z,2.83
2018-08-30T04:28:14.854Z,3.03
2018-08-30T04:30:42.836Z,3.00
2018-08-30T04:33:10.832Z,2.70
2018-08-30T04:35:38.803Z,2.90
2018-08-30T04:38:06.784Z,2.63
2018-08-30T04:40:35.048Z,2.43
2018-08-30T04:43:03.019Z,2.77
2018-08-30T04:45:30.994Z,2.50
2018-08-30T04:47:58.971Z,2.97
2018-08-30T04:50:26.970Z,3.00
2018-08-30T04:52:54.932Z,2.60
2018-08-30T04:55:22.922Z,3.63
2018-08-30T04:57:50.899Z,3.10
2018-08-30T05:00:18.869Z,3.13
2018-08-30T05:02:46.839Z,3.20
2018-08-30T05:05:14.834Z,3.57
2018-08-30T05:07:42.822Z,3.40
2018-08-30T05:10:10.861Z,4.13
2018-08-30T05:12:38.780Z,4.30
2018-08-30T05:15:06.770Z,3.60
2018-08-30T05:17:34.757Z,3.13
2018-08-30T05:20:03.933Z,3.40
2018-08-30T05:22:31.908Z,3.00
2018-08-30T05:25:00.042Z,3.43
2018-08-30T05:27:28.005Z,3.80
2018-08-30T05:29:56.089Z,3.30
2018-08-30T05:32:23.926Z,4.00
2018-08-30T05:34:51.891Z,4.50
2018-08-30T05:37:19.838Z,4.07
2018-08-30T05:39:49.165Z,4.30
2018-08-30T05:42:17.169Z,4.37
2018-08-30T05:44:45.218Z,5.10
2018-08-30T05:47:13.170Z,4.50
2018-08-30T05:49:41.169Z,5.00
2018-08-30T05:52:09.159Z,4.43
2018-08-30T05:54:37.144Z,4.10
2018-08-30T05:57:05.163Z,4.10
2018-08-30T05:59:37.638Z,3.50
2018-08-30T06:02:06.012Z,4.03
2018-08-30T06:04:36.115Z,3.30
2018-08-30T06:07:04.085Z,3.60
2018-08-30T06:09:34.199Z,3.33
2018-08-30T06:12:02.354Z,3.53
2018-08-30T06:14:30.438Z,3.40
2018-08-30T06:16:58.391Z,3.47
2018-08-30T06:19:26.346Z,2.70
2018-08-30T06:21:54.298Z,3.00
2018-08-30T06:24:22.239Z,3.17
2018-08-30T06:26:50.359Z,3.33
2018-08-30T06:29:18.178Z,2.83
2018-08-30T06:31:47.767Z,2.90
2018-08-30T06:34:15.699Z,3.63
2018-08-30T06:36:43.658Z,3.37
2018-08-30T06:39:11.611Z,3.30
2018-08-30T06:41:39.578Z,2.33
2018-08-30T06:44:09.163Z,3.10
2018-08-30T06:46:37.295Z,3.60
2018-08-30T06:49:05.334Z,3.70
2018-08-30T06:51:35.360Z,3.40
2018-08-30T06:54:04.073Z,3.00
2018-08-30T06:56:32.085Z,4.17
2018-08-30T06:59:00.060Z,2.73
2018-08-30T07:01:30.125Z,2.40
2018-08-30T07:03:58.103Z,2.47
2018-08-30T07:06:26.097Z,3.80
2018-08-30T07:08:54.078Z,3.03
2018-08-30T07:11:22.182Z,2.80
2018-08-30T07:13:50.159Z,2.90
2018-08-30T07:16:18.150Z,2.27
2018-08-30T07:18:46.135Z,2.53
2018-08-30T07:21:14.190Z,2.87
2018-08-30T07:23:53.975Z,2.50
2018-08-30T07:26:23.677Z,2.93
2018-08-30T07:28:51.637Z,3.20
2018-08-30T07:31:19.586Z,3.10
2018-08-30T07:33:47.571Z,3.10
2018-08-30T07:36:15.536Z,2.57
2018-08-30T07:38:43.503Z,3.10
2018-08-30T07:41:11.483Z,3.07
2018-08-30T07:43:39.451Z,2.80
2018-08-30T07:46:07.403Z,3.20
2018-08-30T07:48:35.371Z,3.30
2018-08-30T07:51:05.515Z,3.17
2018-08-30T07:53:33.436Z,2.83
2018-08-30T07:56:04.754Z,2.60
2018-08-30T07:58:32.719Z,3.30
2018-08-30T08:01:00.687Z,3.33
2018-08-30T08:03:28.677Z,2.90
2018-08-30T08:05:57.707Z,3.70
2018-08-30T08:08:25.647Z,3.60
2018-08-30T08:10:53.635Z,3.00
2018-08-30T08:13:23.633Z,4.00
2018-08-30T08:15:51.619Z,3.00
2018-08-30T08:18:19.580Z,4.17
2018-08-30T08:20:47.580Z,3.73
2018-08-30T08:23:15.650Z,3.47
2018-08-30T08:25:43.608Z,3.00
2018-08-30T08:28:11.929Z,2.80
2018-08-30T08:30:41.639Z,3.40
2018-08-30T08:33:09.630Z,3.37
2018-08-30T08:35:37.602Z,3.77
2018-08-30T08:38:05.586Z,2.93
2018-08-30T08:40:33.613Z,3.27
2018-08-30T08:43:01.619Z,3.30
2018-08-30T08:45:29.792Z,3.40
2018-08-30T08:47:57.990Z,3.23
2018-08-30T08:50:26.269Z,3.13
2018-08-30T08:52:54.409Z,3.20
2018-08-30T08:55:22.395Z,3.00
2018-08-30T08:57:50.499Z,3.33
2018-08-30T09:00:18.604Z,3.00
2018-08-30T09:02:46.699Z,3.57
2018-08-30T09:05:14.854Z,3.50
2018-08-30T09:07:42.943Z,3.17
2018-08-30T09:10:10.829Z,3.47
2018-08-30T09:12:38.819Z,3.30
2018-08-30T09:15:06.916Z,3.37
2018-08-30T09:17:35.183Z,3.07
2018-08-30T09:20:03.429Z,3.50
2018-08-30T09:22:31.537Z,3.27
2018-08-30T09:24:59.525Z,3.97
2018-08-30T09:27:27.492Z,3.47
2018-08-30T09:29:56.067Z,4.00
2018-08-30T09:32:24.056Z,4.13
2018-08-30T09:34:54.340Z,4.10
2018-08-30T09:37:22.304Z,4.17
2018-08-30T09:39:50.271Z,4.00
2018-08-30T09:42:18.250Z,3.93
2018-08-30T09:44:47.925Z,4.50
2018-08-30T09:47:15.924Z,4.10
2018-08-30T09:49:43.949Z,4.57
2018-08-30T09:52:11.875Z,4.00
2018-08-30T09:54:39.877Z,3.90
2018-08-30T09:57:08.053Z,3.63
2018-08-30T09:59:38.844Z,4.30
2018-08-30T10:02:12.249Z,4.07
2018-08-30T10:04:40.304Z,4.17
2018-08-30T10:07:08.260Z,4.00
2018-08-30T10:09:36.219Z,4.40
2018-08-30T10:12:04.240Z,4.77
2018-08-30T10:14:34.367Z,5.30
2018-08-30T10:17:07.344Z,4.50
2018-08-30T10:19:35.348Z,4.77
2018-08-30T10:22:05.102Z,4.90
2018-08-30T10:24:33.110Z,5.00
2018-08-30T10:27:01.269Z,4.93
2018-08-30T10:29:29.268Z,5.10
2018-08-30T10:31:57.269Z,4.80
2018-08-30T10:34:26.446Z,4.20
2018-08-30T10:36:54.529Z,4.60
2018-08-30T10:39:22.505Z,4.93
2018-08-30T10:41:50.568Z,5.40
2018-08-30T10:44:18.617Z,5.43
2018-08-30T10:46:46.653Z,5.57
2018-08-30T10:49:14.697Z,4.13
2018-08-30T10:51:42.793Z,3.87
2018-08-30T10:54:13.058Z,4.27
2018-08-30T10:56:41.079Z,4.67
2018-08-30T10:59:09.397Z,5.03
2018-08-30T11:01:37.455Z,5.40
2018-08-30T11:04:05.876Z,4.70
2018-08-30T11:06:34.028Z,4.30
2018-08-30T11:09:02.228Z,5.10
2018-08-30T11:11:30.340Z,4.10
2018-08-30T11:13:58.353Z,4.40
2018-08-30T11:16:26.383Z,5.07
2018-08-30T11:18:54.431Z,5.17
2018-08-30T11:21:22.453Z,4.77
2018-08-30T11:23:52.117Z,5.37
2018-08-30T11:26:20.129Z,5.40
2018-08-30T11:28:48.227Z,4.53
2018-08-30T11:31:16.211Z,4.50
2018-08-30T11:33:44.236Z,5.27
2018-08-30T11:36:12.216Z,5.47
2018-08-30T11:38:40.270Z,5.43
2018-08-30T11:41:08.319Z,5.03
2018-08-30T11:43:36.235Z,5.50
2018-08-30T11:46:04.208Z,5.53
2018-08-30T11:48:34.327Z,5.17
2018-08-30T11:51:02.379Z,4.63
2018-08-30T11:53:30.568Z,5.07
2018-08-30T11:56:02.859Z,5.47
2018-08-30T11:58:30.856Z,5.43
2018-08-30T12:00:59.008Z,4.77
2018-08-30T12:03:26.844Z,5.90
2018-08-30T12:05:54.923Z,5.50
2018-08-30T12:08:22.990Z,5.33
2018-08-30T12:10:51.012Z,5.57
2018-08-30T12:13:18.938Z,4.77
2018-08-30T12:15:46.931Z,5.70
2018-08-30T12:18:14.968Z,5.07
2018-08-30T12:20:44.171Z,5.30
2018-08-30T12:23:12.063Z,5.27
2018-08-30T12:25:42.072Z,6.40
2018-08-30T12:28:12.252Z,6.27
2018-08-30T12:30:40.269Z,5.90
2018-08-30T12:33:11.970Z,5.70
2018-08-30T12:35:40.007Z,5.60
2018-08-30T12:38:09.705Z,5.40
2018-08-30T12:40:37.632Z,5.77
2018-08-30T12:43:05.769Z,5.87
2018-08-30T12:45:33.821Z,5.87
2018-08-30T12:48:01.835Z,6.07
2018-08-30T12:50:29.999Z,5.20
2018-08-30T12:52:58.001Z,6.10
2018-08-30T12:55:26.054Z,5.37
2018-08-30T12:57:54.025Z,5.30
2018-08-30T13:00:22.076Z,5.33
2018-08-30T13:02:50.075Z,6.90
2018-08-30T13:05:18.281Z,6.30
2018-08-30T13:07:46.203Z,5.97
2018-08-30T13:10:14.313Z,6.43
2018-08-30T13:12:42.300Z,5.93
2018-08-30T13:15:10.431Z,7.47
2018-08-30T13:17:38.233Z,7.50
2018-08-30T13:20:06.412Z,6.97
2018-08-30T13:22:34.514Z,7.73
2018-08-30T13:25:02.639Z,6.60
2018-08-30T13:27:30.405Z,7.67
2018-08-30T13:29:58.584Z,6.90
2018-08-30T13:32:26.670Z,7.97
2018-08-30T13:34:54.528Z,8.03
2018-08-30T13:37:22.549Z,8.40
2018-08-30T13:39:50.630Z,7.57
2018-08-30T13:42:18.648Z,7.73
2018-08-30T13:44:46.751Z,7.77
2018-08-30T13:47:14.489Z,7.83
2018-08-30T13:49:42.632Z,7.27
2018-08-30T13:52:10.751Z,6.00
2018-08-30T13:54:38.552Z,7.27
2018-08-30T13:57:06.686Z,7.07
2018-08-30T13:59:34.992Z,6.37
2018-08-30T14:02:02.885Z,6.77
2018-08-30T14:04:30.719Z,6.83
2018-08-30T14:06:58.759Z,6.57
2018-08-30T14:09:26.715Z,7.10
2018-08-30T14:11:54.888Z,7.13
2018-08-30T14:14:22.860Z,6.77
2018-08-30T14:16:50.573Z,6.17
2018-08-30T14:19:18.605Z,6.07
2018-08-30T14:21:46.587Z,6.67
2018-08-30T14:24:14.643Z,6.77
2018-08-30T14:26:42.811Z,7.17
2018-08-30T14:29:10.792Z,6.87
2018-08-30T14:31:38.840Z,7.10
2018-08-30T14:34:06.970Z,5.83
2018-08-30T14:36:35.043Z,6.43
2018-08-30T14:39:03.268Z,5.30
2018-08-30T14:41:31.641Z,6.80
2018-08-30T14:43:59.735Z,6.23
2018-08-30T14:46:28.321Z,6.60
2018-08-30T14:48:56.470Z,7.07
2018-08-30T14:51:24.830Z,5.97
2018-08-30T14:53:53.116Z,5.80
2018-08-30T14:56:21.179Z,6.37
2018-08-30T14:58:49.450Z,5.40
2018-08-30T15:01:17.627Z,5.43
2018-08-30T15:03:46.927Z,5.90
2018-08-30T15:06:14.998Z,6.00
2018-08-30T15:08:43.044Z,5.67
2018-08-30T15:11:11.108Z,6.00
2018-08-30T15:13:39.193Z,5.87
2018-08-30T15:16:07.380Z,6.10
2018-08-30T15:18:35.416Z,5.70
2018-08-30T15:21:03.692Z,5.33
2018-08-30T15:23:31.839Z,5.57
2018-08-30T15:25:59.882Z,5.83
2018-08-30T15:28:27.796Z,5.80
2018-08-30T15:30:55.818Z,5.93
2018-08-30T15:33:23.859Z,7.20
2018-08-30T15:35:52.123Z,6.80
2018-08-30T15:38:20.185Z,6.37
2018-08-30T15:40:48.184Z,6.00
2018-08-30T15:43:16.249Z,6.93
2018-08-30T15:45:44.297Z,7.70
2018-08-30T15:48:12.485Z,7.10
2018-08-30T15:50:40.505Z,7.67
2018-08-30T15:53:08.663Z,6.90
2018-08-30T15:55:36.772Z,7.63
2018-08-30T15:58:04.955Z,7.00
2018-08-30T16:00:33.030Z,7.00
2018-08-30T16:03:01.043Z,6.40
2018-08-30T16:05:29.261Z,6.60
2018-08-30T16:07:57.219Z,6.30
2018-08-30T16:10:25.282Z,6.60
2018-08-30T16:12:53.358Z,6.80
2018-08-30T16:15:21.333Z,8.07
2018-08-30T16:17:49.344Z,7.30
2018-08-30T16:20:17.488Z,6.90
2018-08-30T16:22:47.216Z,7.43
2018-08-30T16:25:15.468Z,6.73
2018-08-30T16:27:43.496Z,6.93
2018-08-30T16:30:11.516Z,6.20
2018-08-30T16:32:39.559Z,7.07
2018-08-30T16:35:07.788Z,6.80
2018-08-30T16:37:35.708Z,7.10
2018-08-30T16:40:03.880Z,7.23
2018-08-30T16:42:31.865Z,8.30
2018-08-30T16:45:00.016Z,6.87
2018-08-30T16:47:28.079Z,7.03
2018-08-30T16:49:56.121Z,7.00
2018-08-30T16:52:24.163Z,6.97
2018-08-30T16:54:52.283Z,8.00
2018-08-30T16:57:25.955Z,6.67
2018-08-30T16:59:53.992Z,6.87
2018-08-30T17:02:22.150Z,7.50
2018-08-30T17:04:50.392Z,7.17
2018-08-30T17:07:18.579Z,6.90
2018-08-30T17:09:46.639Z,7.37
2018-08-30T17:12:14.695Z,6.90
2018-08-30T17:14:42.992Z,6.03
2018-08-30T17:17:11.181Z,6.73
2018-08-30T17:19:39.208Z,6.37
2018-08-30T17:22:07.281Z,7.07
2018-08-30T17:24:35.415Z,7.77
2018-08-30T17:27:03.484Z,6.83
2018-08-30T17:29:31.569Z,7.50
2018-08-30T17:31:59.609Z,8.57
2018-08-30T17:34:27.846Z,7.60
2018-08-30T17:36:56.048Z,7.57
2018-08-30T17:39:24.113Z,8.43
2018-08-30T17:41:52.289Z,8.10
2018-08-30T17:44:20.368Z,7.90
2018-08-30T17:46:48.438Z,9.07
2018-08-30T17:49:16.566Z,7.67
2018-08-30T17:51:44.643Z,8.40
2018-08-30T17:54:14.043Z,7.90
2018-08-30T17:56:42.255Z,8.20
2018-08-30T17:59:10.327Z,8.27
2018-08-30T18:01:38.410Z,8.13
2018-08-30T18:04:06.509Z,8.90
2018-08-30T18:06:34.635Z,8.53
2018-08-30T18:09:02.725Z,8.70
2018-08-30T18:11:30.872Z,9.27
2018-08-30T18:13:58.927Z,8.93
2018-08-30T18:16:26.990Z,8.93
2018-08-30T18:18:55.026Z,8.83
2018-08-30T18:21:23.120Z,9.70
2018-08-30T18:23:51.191Z,9.13
2018-08-30T18:26:20.233Z,8.80
2018-08-30T18:28:48.263Z,8.40
2018-08-30T18:31:16.433Z,9.77
2018-08-30T18:33:44.461Z,8.53
2018-08-30T18:36:12.496Z,9.97
2018-08-30T18:38:40.548Z,9.70
2018-08-30T18:41:08.563Z,9.20
2018-08-30T18:43:36.615Z,9.83
2018-08-30T18:46:04.678Z,9.40
2018-08-30T18:48:32.720Z,9.90
2018-08-30T18:51:00.904Z,8.93
2018-08-30T18:53:28.940Z,8.80
2018-08-30T18:55:56.960Z,10.20
2018-08-30T18:58:25.109Z,10.67
2018-08-30T19:00:53.262Z,10.13
2018-08-30T19:03:21.500Z,9.57
2018-08-30T19:05:49.611Z,10.80
2018-08-30T19:08:17.679Z,10.73
2018-08-30T19:10:45.992Z,12.60
2018-08-30T19:13:14.032Z,9.93
2018-08-30T19:15:47.521Z,10.97
2018-08-30T19:18:20.941Z,11.40
2018-08-30T19:20:49.068Z,11.00
2018-08-30T19:23:17.089Z,11.13
2018-08-30T19:25:45.108Z,11.00
2018-08-30T19:28:13.263Z,10.90
2018-08-30T19:30:41.307Z,11.60
2018-08-30T19:33:09.330Z,10.93
2018-08-30T19:35:42.736Z,11.80
2018-08-30T19:38:11.143Z,12.03
2018-08-30T19:40:44.628Z,11.23
2018-08-30T19:43:12.680Z,11.27
2018-08-30T19:45:40.763Z,11.43
2018-08-30T19:48:09.051Z,10.40
2018-08-30T19:50:37.119Z,11.23
2018-08-30T19:53:05.263Z,11.57
2018-08-30T19:55:33.728Z,10.73
2018-08-30T19:58:01.820Z,10.17
2018-08-30T20:00:29.871Z,10.40
2018-08-30T20:02:57.925Z,11.13
2018-08-30T20:05:26.072Z,11.30
2018-08-30T20:07:54.158Z,10.57
2018-08-30T20:10:22.234Z,10.80
2018-08-30T20:12:50.236Z,12.53
2018-08-30T20:15:18.279Z,10.90
2018-08-30T20:17:46.337Z,13.77
2018-08-30T20:20:14.371Z,10.80
2018-08-30T20:22:42.406Z,11.43
2018-08-30T20:25:10.418Z,10.47
2018-08-30T20:27:38.418Z,9.20
2018-08-30T20:30:06.451Z,11.63
2018-08-30T20:32:34.468Z,10.10
2018-08-30T20:35:02.488Z,10.10
2018-08-30T20:37:30.499Z,10.70
2018-08-30T20:39:58.516Z,10.60
2018-08-30T20:42:26.539Z,8.87
2018-08-30T20:44:54.558Z,11.37
2018-08-30T20:47:22.552Z,9.70
2018-08-30T20:49:50.562Z,10.70
2018-08-30T20:52:18.569Z,9.60
2018-08-30T20:54:46.584Z,10.97
2018-08-30T20:57:14.591Z,10.90
2018-08-30T20:59:42.616Z,12.20
2018-08-30T21:02:10.614Z,10.87
2018-08-30T21:04:38.626Z,10.80
2018-08-30T21:07:06.622Z,10.53
2018-08-30T21:09:34.623Z,10.43
2018-08-30T21:12:02.625Z,11.43
2018-08-30T21:14:30.618Z,10.97
2018-08-30T21:16:58.630Z,10.93
2018-08-30T21:19:26.637Z,11.37
2018-08-30T21:21:54.634Z,11.23
2018-08-30T21:24:22.630Z,11.50
2018-08-30T21:26:50.650Z,11.00
2018-08-30T21:29:18.665Z,10.93
2018-08-30T21:31:46.695Z,11.60
2018-08-30T21:34:14.699Z,10.57
2018-08-30T21:36:42.710Z,10.60
2018-08-30T21:39:10.725Z,11.17
2018-08-30T21:41:38.766Z,12.43
2018-08-30T21:44:07.021Z,11.63
2018-08-30T21:46:35.186Z,10.63
2018-08-30T21:49:03.287Z,11.73
2018-08-30T21:51:31.332Z,10.20
2018-08-30T21:53:59.340Z,11.07
2018-08-30T21:56:27.351Z,11.27
2018-08-30T21:58:55.350Z,11.00
2018-08-30T22:01:23.362Z,11.30
2018-08-30T22:03:51.372Z,12.17
2018-08-30T22:06:19.378Z,10.40
2018-08-30T22:08:47.367Z,10.40
2018-08-30T22:11:15.394Z,10.20
2018-08-30T22:13:43.396Z,11.10
2018-08-30T22:16:11.450Z,11.37
2018-08-30T22:18:39.687Z,10.60
2018-08-30T22:21:07.711Z,10.90
2018-08-30T22:23:35.770Z,9.90
2018-08-30T22:26:03.806Z,10.03
2018-08-30T22:28:31.875Z,9.87
2018-08-30T22:30:59.936Z,11.73
2018-08-30T22:33:27.979Z,10.50
2018-08-30T22:35:56.023Z,12.67
2018-08-30T22:38:24.064Z,11.50
2018-08-30T22:40:52.094Z,12.33
2018-08-30T22:43:20.127Z,12.80
2018-08-30T22:45:48.113Z,12.30
2018-08-30T22:48:16.127Z,14.00
2018-08-30T22:50:44.119Z,11.23
2018-08-30T22:53:12.127Z,11.47
2018-08-30T22:55:40.135Z,11.87
2018-08-30T22:58:08.155Z,11.57
2018-08-30T23:00:36.162Z,11.00
2018-08-30T23:03:04.252Z,11.10
2018-08-30T23:05:32.324Z,12.83
2018-08-30T23:08:00.399Z,12.10
2018-08-30T23:10:28.435Z,11.37
2018-08-30T23:12:56.454Z,11.57
2018-08-30T23:15:24.480Z,10.47
2018-08-30T23:17:52.525Z,10.33
2018-08-30T23:20:20.558Z,12.70
2018-08-30T23:22:48.574Z,11.70
2018-08-30T23:25:16.578Z,11.30
2018-08-30T23:27:44.600Z,12.30
2018-08-30T23:30:12.612Z,12.07
2018-08-30T23:32:40.628Z,13.03
2018-08-30T23:35:08.631Z,11.90
2018-08-30T23:37:36.649Z,12.80
2018-08-30T23:40:05.422Z,11.70
2018-08-30T23:42:33.438Z,14.07
2018-08-30T23:45:01.472Z,14.07
2018-08-30T23:47:29.500Z,13.03
2018-08-30T23:49:57.504Z,12.20
2018-08-30T23:52:25.584Z,12.40
2018-08-30T23:54:53.627Z,11.20
2018-08-30T23:57:21.661Z,11.17
2018-08-30T23:59:55.287Z,10.73
